sensor_id;sensor_type;location;lat;lon;timestamp;P1;durP1;ratioP1;P2;durP2;ratioP2
78197;SDS011;67472;51.554;7.812;2024-01-06T00:02:17;8.80;;;7.85;;
78197;SDS011;67472;51.554;7.812;2024-01-06T00:05:04;9.38;;;8.45;;
78197;SDS011;67472;51.554;7.812;2024-01-06T00:07:51;11.82;;;10.07;;
78197;SDS011;67472;51.554;7.812;2024-01-06T00:10:37;11.30;;;8.85;;
78197;SDS011;67472;51.554;7.812;2024-01-06T00:13:23;11.68;;;8.88;;
78197;SDS011;67472;51.554;7.812;2024-01-06T00:16:09;12.40;;;9.63;;
78197;SDS011;67472;51.554;7.812;2024-01-06T00:19:05;10.20;;;8.75;;
78197;SDS011;67472;51.554;7.812;2024-01-06T00:21:59;10.60;;;8.98;;
78197;SDS011;67472;51.554;7.812;2024-01-06T00:24:47;14.38;;;10.55;;
78197;SDS011;67472;51.554;7.812;2024-01-06T00:27:42;9.77;;;8.50;;
78197;SDS011;67472;51.554;7.812;2024-01-06T00:30:28;9.85;;;8.40;;
78197;SDS011;67472;51.554;7.812;2024-01-06T00:33:23;11.90;;;8.73;;
78197;SDS011;67472;51.554;7.812;2024-01-06T00:36:11;9.70;;;7.80;;
78197;SDS011;67472;51.554;7.812;2024-01-06T00:39:07;11.45;;;8.95;;
78197;SDS011;67472;51.554;7.812;2024-01-06T00:42:07;12.05;;;8.77;;
78197;SDS011;67472;51.554;7.812;2024-01-06T00:44:58;9.80;;;8.02;;
78197;SDS011;67472;51.554;7.812;2024-01-06T00:47:48;16.13;;;10.00;;
78197;SDS011;67472;51.554;7.812;2024-01-06T00:50:39;11.00;;;9.02;;
78197;SDS011;67472;51.554;7.812;2024-01-06T00:53:33;15.18;;;10.82;;
78197;SDS011;67472;51.554;7.812;2024-01-06T00:56:23;18.95;;;13.32;;
78197;SDS011;67472;51.554;7.812;2024-01-06T00:59:14;19.63;;;12.88;;
78197;SDS011;67472;51.554;7.812;2024-01-06T01:02:00;21.90;;;14.07;;
78197;SDS011;67472;51.554;7.812;2024-01-06T01:04:51;15.35;;;11.30;;
78197;SDS011;67472;51.554;7.812;2024-01-06T01:07:43;23.77;;;15.75;;
78197;SDS011;67472;51.554;7.812;2024-01-06T01:10:41;21.33;;;14.63;;
78197;SDS011;67472;51.554;7.812;2024-01-06T01:13:38;16.58;;;12.57;;
78197;SDS011;67472;51.554;7.812;2024-01-06T01:16:30;19.80;;;13.68;;
78197;SDS011;67472;51.554;7.812;2024-01-06T01:19:16;20.17;;;14.60;;
78197;SDS011;67472;51.554;7.812;2024-01-06T01:22:12;16.85;;;13.02;;
78197;SDS011;67472;51.554;7.812;2024-01-06T01:25:02;16.23;;;12.93;;
78197;SDS011;67472;51.554;7.812;2024-01-06T01:27:55;15.20;;;11.43;;
78197;SDS011;67472;51.554;7.812;2024-01-06T01:30:41;15.18;;;11.85;;
78197;SDS011;67472;51.554;7.812;2024-01-06T01:33:30;16.73;;;11.63;;
78197;SDS011;67472;51.554;7.812;2024-01-06T01:39:31;15.95;;;12.57;;
78197;SDS011;67472;51.554;7.812;2024-01-06T01:42:23;16.13;;;13.07;;
78197;SDS011;67472;51.554;7.812;2024-01-06T01:45:30;17.23;;;12.57;;
78197;SDS011;67472;51.554;7.812;2024-01-06T01:48:21;19.15;;;13.18;;
78197;SDS011;67472;51.554;7.812;2024-01-06T01:51:22;17.80;;;13.50;;
78197;SDS011;67472;51.554;7.812;2024-01-06T01:54:17;18.05;;;12.95;;
78197;SDS011;67472;51.554;7.812;2024-01-06T01:57:09;16.65;;;12.32;;
78197;SDS011;67472;51.554;7.812;2024-01-06T01:59:57;16.15;;;12.73;;
78197;SDS011;67472;51.554;7.812;2024-01-06T02:03:09;17.77;;;12.43;;
78197;SDS011;67472;51.554;7.812;2024-01-06T02:06:10;17.77;;;13.45;;
78197;SDS011;67472;51.554;7.812;2024-01-06T02:09:02;20.65;;;13.60;;
78197;SDS011;67472;51.554;7.812;2024-01-06T02:11:51;19.83;;;14.80;;
78197;SDS011;67472;51.554;7.812;2024-01-06T02:14:46;19.33;;;13.52;;
78197;SDS011;67472;51.554;7.812;2024-01-06T02:17:38;20.52;;;13.70;;
78197;SDS011;67472;51.554;7.812;2024-01-06T02:20:30;18.98;;;13.95;;
78197;SDS011;67472;51.554;7.812;2024-01-06T02:23:30;15.07;;;11.40;;
78197;SDS011;67472;51.554;7.812;2024-01-06T02:26:25;15.95;;;12.18;;
78197;SDS011;67472;51.554;7.812;2024-01-06T02:29:16;17.42;;;12.93;;
78197;SDS011;67472;51.554;7.812;2024-01-06T02:32:13;20.20;;;13.60;;
78197;SDS011;67472;51.554;7.812;2024-01-06T02:35:06;18.17;;;13.38;;
78197;SDS011;67472;51.554;7.812;2024-01-06T02:37:53;20.55;;;14.50;;
78197;SDS011;67472;51.554;7.812;2024-01-06T02:44:00;23.15;;;15.32;;
78197;SDS011;67472;51.554;7.812;2024-01-06T02:46:50;20.58;;;14.57;;
78197;SDS011;67472;51.554;7.812;2024-01-06T02:49:40;19.05;;;13.50;;
78197;SDS011;67472;51.554;7.812;2024-01-06T02:52:30;19.95;;;13.00;;
78197;SDS011;67472;51.554;7.812;2024-01-06T02:55:16;19.00;;;13.05;;
78197;SDS011;67472;51.554;7.812;2024-01-06T02:58:04;18.40;;;12.98;;
78197;SDS011;67472;51.554;7.812;2024-01-06T03:00:52;20.63;;;13.60;;
78197;SDS011;67472;51.554;7.812;2024-01-06T03:03:38;18.55;;;13.43;;
78197;SDS011;67472;51.554;7.812;2024-01-06T03:06:29;20.23;;;12.70;;
78197;SDS011;67472;51.554;7.812;2024-01-06T03:09:15;17.73;;;12.40;;
78197;SDS011;67472;51.554;7.812;2024-01-06T03:12:02;17.15;;;12.50;;
78197;SDS011;67472;51.554;7.812;2024-01-06T03:14:56;18.27;;;12.00;;
78197;SDS011;67472;51.554;7.812;2024-01-06T03:17:43;16.13;;;11.88;;
78197;SDS011;67472;51.554;7.812;2024-01-06T03:20:29;21.25;;;12.45;;
78197;SDS011;67472;51.554;7.812;2024-01-06T03:23:16;19.42;;;13.70;;
78197;SDS011;67472;51.554;7.812;2024-01-06T03:26:05;17.77;;;12.45;;
78197;SDS011;67472;51.554;7.812;2024-01-06T03:28:51;21.23;;;12.10;;
78197;SDS011;67472;51.554;7.812;2024-01-06T03:31:42;16.15;;;11.60;;
78197;SDS011;67472;51.554;7.812;2024-01-06T03:34:29;20.17;;;11.88;;
78197;SDS011;67472;51.554;7.812;2024-01-06T03:37:15;18.50;;;13.05;;
78197;SDS011;67472;51.554;7.812;2024-01-06T03:40:01;19.25;;;13.18;;
78197;SDS011;67472;51.554;7.812;2024-01-06T03:42:48;24.33;;;14.73;;
78197;SDS011;67472;51.554;7.812;2024-01-06T03:45:34;21.23;;;14.23;;
78197;SDS011;67472;51.554;7.812;2024-01-06T03:48:23;18.65;;;13.85;;
78197;SDS011;67472;51.554;7.812;2024-01-06T03:51:12;20.33;;;14.15;;
78197;SDS011;67472;51.554;7.812;2024-01-06T03:54:00;22.73;;;14.82;;
78197;SDS011;67472;51.554;7.812;2024-01-06T03:56:48;22.75;;;14.48;;
78197;SDS011;67472;51.554;7.812;2024-01-06T03:59:34;20.45;;;13.60;;
78197;SDS011;67472;51.554;7.812;2024-01-06T04:02:21;23.23;;;14.50;;
78197;SDS011;67472;51.554;7.812;2024-01-06T04:05:08;26.40;;;15.88;;
78197;SDS011;67472;51.554;7.812;2024-01-06T04:07:54;22.35;;;15.38;;
78197;SDS011;67472;51.554;7.812;2024-01-06T04:10:42;27.60;;;15.38;;
78197;SDS011;67472;51.554;7.812;2024-01-06T04:13:33;21.65;;;14.90;;
78197;SDS011;67472;51.554;7.812;2024-01-06T04:16:19;22.48;;;14.15;;
78197;SDS011;67472;51.554;7.812;2024-01-06T04:19:07;22.25;;;14.20;;
78197;SDS011;67472;51.554;7.812;2024-01-06T04:21:59;24.35;;;14.43;;
78197;SDS011;67472;51.554;7.812;2024-01-06T04:24:48;24.50;;;14.52;;
78197;SDS011;67472;51.554;7.812;2024-01-06T04:27:36;19.80;;;13.73;;
78197;SDS011;67472;51.554;7.812;2024-01-06T04:30:24;23.73;;;14.43;;
78197;SDS011;67472;51.554;7.812;2024-01-06T04:33:12;26.42;;;15.50;;
78197;SDS011;67472;51.554;7.812;2024-01-06T04:36:01;23.98;;;14.77;;
78197;SDS011;67472;51.554;7.812;2024-01-06T04:38:48;24.90;;;15.10;;
78197;SDS011;67472;51.554;7.812;2024-01-06T04:41:36;24.23;;;13.95;;
78197;SDS011;67472;51.554;7.812;2024-01-06T04:44:23;23.85;;;15.00;;
78197;SDS011;67472;51.554;7.812;2024-01-06T04:47:09;21.17;;;12.88;;
78197;SDS011;67472;51.554;7.812;2024-01-06T04:49:56;21.35;;;13.30;;
78197;SDS011;67472;51.554;7.812;2024-01-06T04:52:42;23.27;;;13.85;;
78197;SDS011;67472;51.554;7.812;2024-01-06T04:55:29;25.65;;;14.35;;
78197;SDS011;67472;51.554;7.812;2024-01-06T04:58:17;21.65;;;13.98;;
78197;SDS011;67472;51.554;7.812;2024-01-06T05:01:04;21.67;;;12.50;;
78197;SDS011;67472;51.554;7.812;2024-01-06T05:03:52;22.55;;;12.52;;
78197;SDS011;67472;51.554;7.812;2024-01-06T05:06:38;19.08;;;12.38;;
78197;SDS011;67472;51.554;7.812;2024-01-06T05:09:24;23.13;;;13.00;;
78197;SDS011;67472;51.554;7.812;2024-01-06T05:12:14;20.38;;;13.18;;
78197;SDS011;67472;51.554;7.812;2024-01-06T05:15:04;22.17;;;12.50;;
78197;SDS011;67472;51.554;7.812;2024-01-06T05:17:51;24.70;;;13.73;;
78197;SDS011;67472;51.554;7.812;2024-01-06T05:20:36;21.13;;;12.88;;
78197;SDS011;67472;51.554;7.812;2024-01-06T05:23:25;28.20;;;14.85;;
78197;SDS011;67472;51.554;7.812;2024-01-06T05:26:12;22.60;;;13.45;;
78197;SDS011;67472;51.554;7.812;2024-01-06T05:29:01;26.10;;;14.05;;
78197;SDS011;67472;51.554;7.812;2024-01-06T05:32:01;24.48;;;14.25;;
78197;SDS011;67472;51.554;7.812;2024-01-06T05:34:48;24.42;;;13.73;;
78197;SDS011;67472;51.554;7.812;2024-01-06T05:37:35;26.08;;;14.60;;
78197;SDS011;67472;51.554;7.812;2024-01-06T05:40:22;27.33;;;15.02;;
78197;SDS011;67472;51.554;7.812;2024-01-06T05:43:08;27.48;;;14.95;;
78197;SDS011;67472;51.554;7.812;2024-01-06T05:45:56;30.40;;;15.02;;
78197;SDS011;67472;51.554;7.812;2024-01-06T05:48:44;26.35;;;13.55;;
78197;SDS011;67472;51.554;7.812;2024-01-06T05:51:30;27.10;;;14.73;;
78197;SDS011;67472;51.554;7.812;2024-01-06T05:54:18;29.63;;;15.48;;
78197;SDS011;67472;51.554;7.812;2024-01-06T05:57:06;26.25;;;14.20;;
78197;SDS011;67472;51.554;7.812;2024-01-06T05:59:53;30.85;;;16.25;;
78197;SDS011;67472;51.554;7.812;2024-01-06T06:02:45;29.45;;;15.98;;
78197;SDS011;67472;51.554;7.812;2024-01-06T06:05:31;25.60;;;13.98;;
78197;SDS011;67472;51.554;7.812;2024-01-06T06:08:18;27.75;;;15.38;;
78197;SDS011;67472;51.554;7.812;2024-01-06T06:11:05;27.58;;;15.23;;
78197;SDS011;67472;51.554;7.812;2024-01-06T06:13:55;24.88;;;14.90;;
78197;SDS011;67472;51.554;7.812;2024-01-06T06:16:43;25.30;;;13.45;;
78197;SDS011;67472;51.554;7.812;2024-01-06T06:19:31;25.98;;;14.23;;
78197;SDS011;67472;51.554;7.812;2024-01-06T06:22:18;27.83;;;14.75;;
78197;SDS011;67472;51.554;7.812;2024-01-06T06:25:06;24.80;;;13.93;;
78197;SDS011;67472;51.554;7.812;2024-01-06T06:27:53;25.08;;;14.00;;
78197;SDS011;67472;51.554;7.812;2024-01-06T06:30:39;22.65;;;12.82;;
78197;SDS011;67472;51.554;7.812;2024-01-06T06:33:25;25.25;;;13.77;;
78197;SDS011;67472;51.554;7.812;2024-01-06T06:36:15;26.35;;;14.07;;
78197;SDS011;67472;51.554;7.812;2024-01-06T06:39:01;26.75;;;13.52;;
78197;SDS011;67472;51.554;7.812;2024-01-06T06:41:48;26.10;;;13.40;;
78197;SDS011;67472;51.554;7.812;2024-01-06T06:44:34;25.67;;;14.30;;
78197;SDS011;67472;51.554;7.812;2024-01-06T06:47:21;25.23;;;14.80;;
78197;SDS011;67472;51.554;7.812;2024-01-06T06:50:07;28.33;;;13.68;;
78197;SDS011;67472;51.554;7.812;2024-01-06T06:52:58;24.77;;;12.90;;
78197;SDS011;67472;51.554;7.812;2024-01-06T06:55:49;25.25;;;13.65;;
78197;SDS011;67472;51.554;7.812;2024-01-06T06:58:36;23.60;;;12.82;;
78197;SDS011;67472;51.554;7.812;2024-01-06T07:01:22;25.35;;;11.75;;
78197;SDS011;67472;51.554;7.812;2024-01-06T07:04:19;20.58;;;10.98;;
78197;SDS011;67472;51.554;7.812;2024-01-06T07:07:08;23.42;;;11.93;;
78197;SDS011;67472;51.554;7.812;2024-01-06T07:10:04;21.73;;;11.80;;
78197;SDS011;67472;51.554;7.812;2024-01-06T07:12:51;19.45;;;11.10;;
78197;SDS011;67472;51.554;7.812;2024-01-06T07:15:40;21.95;;;10.98;;
78197;SDS011;67472;51.554;7.812;2024-01-06T07:18:32;22.17;;;11.70;;
78197;SDS011;67472;51.554;7.812;2024-01-06T07:21:19;20.02;;;10.98;;
78197;SDS011;67472;51.554;7.812;2024-01-06T07:24:10;22.25;;;11.82;;
78197;SDS011;67472;51.554;7.812;2024-01-06T07:27:00;20.75;;;10.60;;
78197;SDS011;67472;51.554;7.812;2024-01-06T07:29:50;20.10;;;10.45;;
78197;SDS011;67472;51.554;7.812;2024-01-06T07:32:47;22.33;;;11.70;;
78197;SDS011;67472;51.554;7.812;2024-01-06T07:35:40;21.77;;;11.90;;
78197;SDS011;67472;51.554;7.812;2024-01-06T07:38:33;21.45;;;11.30;;
78197;SDS011;67472;51.554;7.812;2024-01-06T07:41:19;24.02;;;12.02;;
78197;SDS011;67472;51.554;7.812;2024-01-06T07:44:08;25.08;;;12.48;;
78197;SDS011;67472;51.554;7.812;2024-01-06T07:46:56;24.48;;;11.88;;
78197;SDS011;67472;51.554;7.812;2024-01-06T07:49:44;20.40;;;11.05;;
78197;SDS011;67472;51.554;7.812;2024-01-06T07:52:31;21.52;;;11.60;;
78197;SDS011;67472;51.554;7.812;2024-01-06T07:55:23;21.77;;;12.02;;
78197;SDS011;67472;51.554;7.812;2024-01-06T07:58:13;24.63;;;12.32;;
78197;SDS011;67472;51.554;7.812;2024-01-06T08:01:01;26.83;;;13.90;;
78197;SDS011;67472;51.554;7.812;2024-01-06T08:03:47;25.88;;;13.23;;
78197;SDS011;67472;51.554;7.812;2024-01-06T08:06:33;23.85;;;12.48;;
78197;SDS011;67472;51.554;7.812;2024-01-06T08:09:21;25.90;;;12.65;;
78197;SDS011;67472;51.554;7.812;2024-01-06T08:12:08;24.85;;;13.13;;
78197;SDS011;67472;51.554;7.812;2024-01-06T08:14:55;24.63;;;13.35;;
78197;SDS011;67472;51.554;7.812;2024-01-06T08:17:43;26.77;;;13.35;;
78197;SDS011;67472;51.554;7.812;2024-01-06T08:20:32;23.02;;;11.25;;
78197;SDS011;67472;51.554;7.812;2024-01-06T08:23:18;21.55;;;12.45;;
78197;SDS011;67472;51.554;7.812;2024-01-06T08:26:05;25.50;;;12.55;;
78197;SDS011;67472;51.554;7.812;2024-01-06T08:28:52;23.77;;;12.85;;
78197;SDS011;67472;51.554;7.812;2024-01-06T08:31:40;22.95;;;11.25;;
78197;SDS011;67472;51.554;7.812;2024-01-06T08:34:27;18.15;;;9.27;;
78197;SDS011;67472;51.554;7.812;2024-01-06T08:37:13;19.08;;;9.70;;
78197;SDS011;67472;51.554;7.812;2024-01-06T08:40:03;17.65;;;9.18;;
78197;SDS011;67472;51.554;7.812;2024-01-06T08:42:55;18.73;;;7.95;;
78197;SDS011;67472;51.554;7.812;2024-01-06T08:45:47;18.10;;;9.00;;
78197;SDS011;67472;51.554;7.812;2024-01-06T08:48:35;13.93;;;7.15;;
78197;SDS011;67472;51.554;7.812;2024-01-06T08:51:35;11.85;;;7.13;;
78197;SDS011;67472;51.554;7.812;2024-01-06T08:54:21;14.27;;;6.57;;
78197;SDS011;67472;51.554;7.812;2024-01-06T08:57:08;13.65;;;8.15;;
78197;SDS011;67472;51.554;7.812;2024-01-06T08:59:54;13.10;;;6.90;;
78197;SDS011;67472;51.554;7.812;2024-01-06T09:02:40;13.15;;;6.43;;
78197;SDS011;67472;51.554;7.812;2024-01-06T09:05:26;13.48;;;7.22;;
78197;SDS011;67472;51.554;7.812;2024-01-06T09:08:14;13.57;;;7.03;;
78197;SDS011;67472;51.554;7.812;2024-01-06T09:11:01;12.48;;;6.55;;
78197;SDS011;67472;51.554;7.812;2024-01-06T09:13:47;11.60;;;6.57;;
78197;SDS011;67472;51.554;7.812;2024-01-06T09:16:37;13.63;;;6.55;;
78197;SDS011;67472;51.554;7.812;2024-01-06T09:19:24;12.32;;;6.57;;
78197;SDS011;67472;51.554;7.812;2024-01-06T09:22:15;11.98;;;6.05;;
78197;SDS011;67472;51.554;7.812;2024-01-06T09:25:03;10.52;;;5.72;;
78197;SDS011;67472;51.554;7.812;2024-01-06T09:27:51;12.95;;;6.53;;
78197;SDS011;67472;51.554;7.812;2024-01-06T09:30:40;9.82;;;5.32;;
78197;SDS011;67472;51.554;7.812;2024-01-06T09:33:27;12.75;;;5.85;;
78197;SDS011;67472;51.554;7.812;2024-01-06T09:36:13;10.60;;;5.70;;
78197;SDS011;67472;51.554;7.812;2024-01-06T09:39:00;10.93;;;5.72;;
78197;SDS011;67472;51.554;7.812;2024-01-06T09:41:49;10.38;;;5.97;;
78197;SDS011;67472;51.554;7.812;2024-01-06T09:44:38;10.77;;;5.50;;
78197;SDS011;67472;51.554;7.812;2024-01-06T09:47:25;12.98;;;5.78;;
78197;SDS011;67472;51.554;7.812;2024-01-06T09:50:17;11.10;;;5.63;;
78197;SDS011;67472;51.554;7.812;2024-01-06T09:53:05;11.43;;;6.20;;
78197;SDS011;67472;51.554;7.812;2024-01-06T09:55:57;14.90;;;6.38;;
78197;SDS011;67472;51.554;7.812;2024-01-06T09:58:45;10.77;;;6.30;;
78197;SDS011;67472;51.554;7.812;2024-01-06T10:01:31;13.48;;;7.03;;
78197;SDS011;67472;51.554;7.812;2024-01-06T10:04:17;15.45;;;7.53;;
78197;SDS011;67472;51.554;7.812;2024-01-06T10:07:07;15.95;;;9.68;;
78197;SDS011;67472;51.554;7.812;2024-01-06T10:09:57;19.40;;;9.23;;
78197;SDS011;67472;51.554;7.812;2024-01-06T10:12:43;19.80;;;10.25;;
78197;SDS011;67472;51.554;7.812;2024-01-06T10:15:32;18.80;;;9.65;;
78197;SDS011;67472;51.554;7.812;2024-01-06T10:18:22;18.35;;;10.90;;
78197;SDS011;67472;51.554;7.812;2024-01-06T10:21:13;27.98;;;13.32;;
78197;SDS011;67472;51.554;7.812;2024-01-06T10:24:01;25.05;;;13.65;;
78197;SDS011;67472;51.554;7.812;2024-01-06T10:26:49;28.98;;;13.75;;
78197;SDS011;67472;51.554;7.812;2024-01-06T10:29:35;32.20;;;15.38;;
78197;SDS011;67472;51.554;7.812;2024-01-06T10:32:27;29.40;;;15.20;;
78197;SDS011;67472;51.554;7.812;2024-01-06T10:35:17;26.33;;;12.82;;
78197;SDS011;67472;51.554;7.812;2024-01-06T10:38:06;26.10;;;12.90;;
78197;SDS011;67472;51.554;7.812;2024-01-06T10:40:56;34.60;;;15.48;;
78197;SDS011;67472;51.554;7.812;2024-01-06T10:43:43;29.23;;;13.80;;
78197;SDS011;67472;51.554;7.812;2024-01-06T10:46:31;28.60;;;13.38;;
78197;SDS011;67472;51.554;7.812;2024-01-06T10:49:19;26.00;;;12.40;;
78197;SDS011;67472;51.554;7.812;2024-01-06T10:52:12;26.48;;;12.98;;
78197;SDS011;67472;51.554;7.812;2024-01-06T10:54:59;26.00;;;13.00;;
78197;SDS011;67472;51.554;7.812;2024-01-06T10:57:45;29.35;;;13.35;;
78197;SDS011;67472;51.554;7.812;2024-01-06T11:00:32;25.15;;;12.93;;
78197;SDS011;67472;51.554;7.812;2024-01-06T11:03:18;31.25;;;13.43;;
78197;SDS011;67472;51.554;7.812;2024-01-06T11:06:08;29.52;;;13.68;;
78197;SDS011;67472;51.554;7.812;2024-01-06T11:08:57;29.38;;;15.20;;
78197;SDS011;67472;51.554;7.812;2024-01-06T11:11:48;25.45;;;13.00;;
78197;SDS011;67472;51.554;7.812;2024-01-06T11:14:36;34.47;;;15.88;;
78197;SDS011;67472;51.554;7.812;2024-01-06T11:20:38;31.92;;;13.90;;
78197;SDS011;67472;51.554;7.812;2024-01-06T11:23:27;33.55;;;15.35;;
78197;SDS011;67472;51.554;7.812;2024-01-06T11:26:14;32.70;;;15.50;;
78197;SDS011;67472;51.554;7.812;2024-01-06T11:29:00;26.23;;;13.55;;
78197;SDS011;67472;51.554;7.812;2024-01-06T11:35:04;29.80;;;14.90;;
78197;SDS011;67472;51.554;7.812;2024-01-06T11:37:54;33.05;;;14.85;;
78197;SDS011;67472;51.554;7.812;2024-01-06T11:40:45;29.67;;;14.82;;
78197;SDS011;67472;51.554;7.812;2024-01-06T11:43:33;32.63;;;14.20;;
78197;SDS011;67472;51.554;7.812;2024-01-06T11:46:21;29.50;;;14.10;;
78197;SDS011;67472;51.554;7.812;2024-01-06T11:49:07;30.60;;;13.90;;
78197;SDS011;67472;51.554;7.812;2024-01-06T11:52:01;24.98;;;13.52;;
78197;SDS011;67472;51.554;7.812;2024-01-06T11:54:50;30.83;;;14.73;;
78197;SDS011;67472;51.554;7.812;2024-01-06T11:57:46;29.48;;;13.40;;
78197;SDS011;67472;51.554;7.812;2024-01-06T12:00:33;27.90;;;14.73;;
78197;SDS011;67472;51.554;7.812;2024-01-06T12:03:22;26.17;;;13.50;;
78197;SDS011;67472;51.554;7.812;2024-01-06T12:06:09;27.80;;;14.05;;
78197;SDS011;67472;51.554;7.812;2024-01-06T12:09:02;30.63;;;15.70;;
78197;SDS011;67472;51.554;7.812;2024-01-06T12:12:00;29.33;;;14.90;;
78197;SDS011;67472;51.554;7.812;2024-01-06T12:14:48;33.38;;;16.67;;
78197;SDS011;67472;51.554;7.812;2024-01-06T12:17:38;32.65;;;14.80;;
78197;SDS011;67472;51.554;7.812;2024-01-06T12:20:35;27.92;;;12.85;;
78197;SDS011;67472;51.554;7.812;2024-01-06T12:23:24;28.02;;;13.57;;
78197;SDS011;67472;51.554;7.812;2024-01-06T12:26:13;26.17;;;13.27;;
78197;SDS011;67472;51.554;7.812;2024-01-06T12:29:00;26.98;;;13.30;;
78197;SDS011;67472;51.554;7.812;2024-01-06T12:31:51;30.67;;;13.50;;
78197;SDS011;67472;51.554;7.812;2024-01-06T12:34:38;29.00;;;13.43;;
78197;SDS011;67472;51.554;7.812;2024-01-06T12:37:25;31.77;;;13.82;;
78197;SDS011;67472;51.554;7.812;2024-01-06T12:40:12;25.00;;;13.07;;
78197;SDS011;67472;51.554;7.812;2024-01-06T12:42:59;27.08;;;13.15;;
78197;SDS011;67472;51.554;7.812;2024-01-06T12:45:45;28.02;;;13.07;;
78197;SDS011;67472;51.554;7.812;2024-01-06T12:48:34;25.08;;;13.43;;
78197;SDS011;67472;51.554;7.812;2024-01-06T12:51:20;25.55;;;13.23;;
78197;SDS011;67472;51.554;7.812;2024-01-06T12:54:06;25.63;;;13.27;;
78197;SDS011;67472;51.554;7.812;2024-01-06T12:56:52;24.42;;;12.60;;
78197;SDS011;67472;51.554;7.812;2024-01-06T12:59:39;26.95;;;14.05;;
78197;SDS011;67472;51.554;7.812;2024-01-06T13:02:29;26.70;;;13.43;;
78197;SDS011;67472;51.554;7.812;2024-01-06T13:05:17;25.77;;;13.93;;
78197;SDS011;67472;51.554;7.812;2024-01-06T13:08:04;28.33;;;14.77;;
78197;SDS011;67472;51.554;7.812;2024-01-06T13:10:51;27.38;;;13.75;;
78197;SDS011;67472;51.554;7.812;2024-01-06T13:13:38;28.45;;;13.57;;
78197;SDS011;67472;51.554;7.812;2024-01-06T13:16:26;31.42;;;14.68;;
78197;SDS011;67472;51.554;7.812;2024-01-06T13:19:12;24.27;;;12.75;;
78197;SDS011;67472;51.554;7.812;2024-01-06T13:22:02;30.77;;;14.25;;
78197;SDS011;67472;51.554;7.812;2024-01-06T13:24:56;24.08;;;12.57;;
78197;SDS011;67472;51.554;7.812;2024-01-06T13:27:46;22.50;;;11.98;;
78197;SDS011;67472;51.554;7.812;2024-01-06T13:30:32;21.48;;;12.00;;
78197;SDS011;67472;51.554;7.812;2024-01-06T13:33:18;27.55;;;12.48;;
78197;SDS011;67472;51.554;7.812;2024-01-06T13:36:05;22.52;;;11.98;;
78197;SDS011;67472;51.554;7.812;2024-01-06T13:38:54;23.27;;;11.57;;
78197;SDS011;67472;51.554;7.812;2024-01-06T13:41:40;20.25;;;10.93;;
78197;SDS011;67472;51.554;7.812;2024-01-06T13:44:26;18.88;;;9.73;;
78197;SDS011;67472;51.554;7.812;2024-01-06T13:47:15;21.00;;;10.80;;
78197;SDS011;67472;51.554;7.812;2024-01-06T13:50:01;16.65;;;8.90;;
78197;SDS011;67472;51.554;7.812;2024-01-06T13:52:49;20.77;;;9.75;;
78197;SDS011;67472;51.554;7.812;2024-01-06T13:55:40;20.00;;;10.18;;
78197;SDS011;67472;51.554;7.812;2024-01-06T13:58:27;24.00;;;11.55;;
78197;SDS011;67472;51.554;7.812;2024-01-06T14:01:13;27.80;;;11.40;;
78197;SDS011;67472;51.554;7.812;2024-01-06T14:04:00;22.20;;;10.65;;
78197;SDS011;67472;51.554;7.812;2024-01-06T14:06:47;22.30;;;10.93;;
78197;SDS011;67472;51.554;7.812;2024-01-06T14:09:40;18.63;;;9.40;;
78197;SDS011;67472;51.554;7.812;2024-01-06T14:12:28;24.00;;;10.32;;
78197;SDS011;67472;51.554;7.812;2024-01-06T14:15:14;18.30;;;9.30;;
78197;SDS011;67472;51.554;7.812;2024-01-06T14:18:01;18.17;;;10.18;;
78197;SDS011;67472;51.554;7.812;2024-01-06T14:20:55;21.40;;;10.18;;
78197;SDS011;67472;51.554;7.812;2024-01-06T14:23:45;21.38;;;9.27;;
78197;SDS011;67472;51.554;7.812;2024-01-06T14:26:32;20.25;;;10.25;;
78197;SDS011;67472;51.554;7.812;2024-01-06T14:29:20;22.92;;;11.30;;
78197;SDS011;67472;51.554;7.812;2024-01-06T14:32:11;20.30;;;11.57;;
78197;SDS011;67472;51.554;7.812;2024-01-06T14:34:58;20.00;;;10.07;;
78197;SDS011;67472;51.554;7.812;2024-01-06T14:37:46;21.42;;;10.75;;
78197;SDS011;67472;51.554;7.812;2024-01-06T14:40:32;23.67;;;12.75;;
78197;SDS011;67472;51.554;7.812;2024-01-06T14:43:22;20.77;;;9.85;;
78197;SDS011;67472;51.554;7.812;2024-01-06T14:46:10;20.17;;;10.18;;
78197;SDS011;67472;51.554;7.812;2024-01-06T14:48:56;21.95;;;11.57;;
78197;SDS011;67472;51.554;7.812;2024-01-06T14:51:42;23.30;;;11.00;;
78197;SDS011;67472;51.554;7.812;2024-01-06T14:54:32;25.60;;;10.95;;
78197;SDS011;67472;51.554;7.812;2024-01-06T14:57:18;23.45;;;11.27;;
78197;SDS011;67472;51.554;7.812;2024-01-06T15:00:06;20.65;;;10.38;;
78197;SDS011;67472;51.554;7.812;2024-01-06T15:02:56;18.40;;;10.43;;
78197;SDS011;67472;51.554;7.812;2024-01-06T15:05:43;26.38;;;10.35;;
78197;SDS011;67472;51.554;7.812;2024-01-06T15:08:37;20.40;;;11.43;;
78197;SDS011;67472;51.554;7.812;2024-01-06T15:11:31;24.73;;;11.35;;
78197;SDS011;67472;51.554;7.812;2024-01-06T15:14:18;20.67;;;11.10;;
78197;SDS011;67472;51.554;7.812;2024-01-06T15:17:04;24.23;;;13.10;;
78197;SDS011;67472;51.554;7.812;2024-01-06T15:20:00;29.48;;;14.05;;
78197;SDS011;67472;51.554;7.812;2024-01-06T15:22:46;19.52;;;11.32;;
78197;SDS011;67472;51.554;7.812;2024-01-06T15:25:37;23.60;;;14.20;;
78197;SDS011;67472;51.554;7.812;2024-01-06T15:28:25;26.17;;;12.07;;
78197;SDS011;67472;51.554;7.812;2024-01-06T15:31:13;22.92;;;11.75;;
78197;SDS011;67472;51.554;7.812;2024-01-06T15:34:01;20.63;;;11.07;;
78197;SDS011;67472;51.554;7.812;2024-01-06T15:36:50;19.65;;;10.70;;
78197;SDS011;67472;51.554;7.812;2024-01-06T15:39:41;17.83;;;10.85;;
78197;SDS011;67472;51.554;7.812;2024-01-06T15:42:29;17.25;;;9.80;;
78197;SDS011;67472;51.554;7.812;2024-01-06T15:45:16;16.90;;;10.27;;
78197;SDS011;67472;51.554;7.812;2024-01-06T15:48:07;13.15;;;7.65;;
78197;SDS011;67472;51.554;7.812;2024-01-06T15:50:54;15.77;;;8.05;;
78197;SDS011;67472;51.554;7.812;2024-01-06T15:53:41;15.48;;;8.50;;
78197;SDS011;67472;51.554;7.812;2024-01-06T15:56:27;14.90;;;7.75;;
78197;SDS011;67472;51.554;7.812;2024-01-06T15:59:17;13.70;;;8.95;;
78197;SDS011;67472;51.554;7.812;2024-01-06T16:02:03;13.48;;;8.98;;
78197;SDS011;67472;51.554;7.812;2024-01-06T16:05:01;13.65;;;9.10;;
78197;SDS011;67472;51.554;7.812;2024-01-06T16:07:51;23.67;;;11.65;;
78197;SDS011;67472;51.554;7.812;2024-01-06T16:10:41;15.23;;;8.07;;
78197;SDS011;67472;51.554;7.812;2024-01-06T16:13:30;8.85;;;5.68;;
78197;SDS011;67472;51.554;7.812;2024-01-06T16:16:16;11.60;;;7.30;;
78197;SDS011;67472;51.554;7.812;2024-01-06T16:19:04;10.40;;;6.53;;
78197;SDS011;67472;51.554;7.812;2024-01-06T16:21:51;9.30;;;6.32;;
78197;SDS011;67472;51.554;7.812;2024-01-06T16:24:40;10.18;;;7.10;;
78197;SDS011;67472;51.554;7.812;2024-01-06T16:27:27;11.98;;;6.60;;
78197;SDS011;67472;51.554;7.812;2024-01-06T16:30:15;9.88;;;6.47;;
78197;SDS011;67472;51.554;7.812;2024-01-06T16:33:02;13.25;;;6.05;;
78197;SDS011;67472;51.554;7.812;2024-01-06T16:35:49;12.93;;;7.57;;
78197;SDS011;67472;51.554;7.812;2024-01-06T16:38:40;13.00;;;6.70;;
78197;SDS011;67472;51.554;7.812;2024-01-06T16:41:29;8.63;;;5.78;;
78197;SDS011;67472;51.554;7.812;2024-01-06T16:44:19;12.90;;;7.00;;
78197;SDS011;67472;51.554;7.812;2024-01-06T16:47:06;8.95;;;5.88;;